sensor_id;sensor_type;location;lat;lon;timestamp;temperature;humidity
46720;DHT22;32452;51.382;-0.002;2023-04-03T00:00:01;5.30;89.20
46720;DHT22;32452;51.382;-0.002;2023-04-03T00:02:48;5.30;89.30
46720;DHT22;32452;51.382;-0.002;2023-04-03T00:05:34;5.30;89.50
46720;DHT22;32452;51.382;-0.002;2023-04-03T00:08:20;5.20;89.80
46720;DHT22;32452;51.382;-0.002;2023-04-03T00:11:06;5.10;89.90
46720;DHT22;32452;51.382;-0.002;2023-04-03T00:13:52;5.10;90.00
46720;DHT22;32452;51.382;-0.002;2023-04-03T00:16:37;5.10;90.10
46720;DHT22;32452;51.382;-0.002;2023-04-03T00:19:23;5.10;90.20
46720;DHT22;32452;51.382;-0.002;2023-04-03T00:22:09;5.00;90.30
46720;DHT22;32452;51.382;-0.002;2023-04-03T00:24:55;5.00;90.50
46720;DHT22;32452;51.382;-0.002;2023-04-03T00:27:41;5.00;90.50
46720;DHT22;32452;51.382;-0.002;2023-04-03T00:30:27;4.90;90.60
46720;DHT22;32452;51.382;-0.002;2023-04-03T00:33:13;4.90;90.70
46720;DHT22;32452;51.382;-0.002;2023-04-03T00:35:58;4.90;90.90
46720;DHT22;32452;51.382;-0.002;2023-04-03T00:38:44;4.90;91.00
46720;DHT22;32452;51.382;-0.002;2023-04-03T00:41:30;4.80;91.10
46720;DHT22;32452;51.382;-0.002;2023-04-03T00:47:09;4.80;91.30
46720;DHT22;32452;51.382;-0.002;2023-04-03T00:49:56;4.80;91.50
46720;DHT22;32452;51.382;-0.002;2023-04-03T00:52:42;4.80;91.50
46720;DHT22;32452;51.382;-0.002;2023-04-03T00:55:27;4.70;91.60
46720;DHT22;32452;51.382;-0.002;2023-04-03T00:58:16;4.80;91.80
46720;DHT22;32452;51.382;-0.002;2023-04-03T01:01:06;4.70;91.90
46720;DHT22;32452;51.382;-0.002;2023-04-03T01:03:53;4.70;92.00
46720;DHT22;32452;51.382;-0.002;2023-04-03T01:06:39;4.70;92.10
46720;DHT22;32452;51.382;-0.002;2023-04-03T01:09:25;4.70;92.20
46720;DHT22;32452;51.382;-0.002;2023-04-03T01:12:21;4.60;92.40
46720;DHT22;32452;51.382;-0.002;2023-04-03T01:15:21;4.60;92.50
46720;DHT22;32452;51.382;-0.002;2023-04-03T01:18:10;4.60;92.60
46720;DHT22;32452;51.382;-0.002;2023-04-03T01:26:48;4.50;92.90
46720;DHT22;32452;51.382;-0.002;2023-04-03T01:29:34;4.50;93.10
46720;DHT22;32452;51.382;-0.002;2023-04-03T01:32:19;4.50;93.10
46720;DHT22;32452;51.382;-0.002;2023-04-03T01:35:08;4.50;93.20
46720;DHT22;32452;51.382;-0.002;2023-04-03T01:37:54;4.40;93.30
46720;DHT22;32452;51.382;-0.002;2023-04-03T01:40:39;4.40;93.40
46720;DHT22;32452;51.382;-0.002;2023-04-03T01:43:25;4.30;93.50
46720;DHT22;32452;51.382;-0.002;2023-04-03T01:46:10;4.30;93.60
46720;DHT22;32452;51.382;-0.002;2023-04-03T01:48:57;4.30;94.10
46720;DHT22;32452;51.382;-0.002;2023-04-03T01:51:43;4.20;93.80
46720;DHT22;32452;51.382;-0.002;2023-04-03T01:54:28;4.20;94.00
46720;DHT22;32452;51.382;-0.002;2023-04-03T01:57:14;4.20;94.10
46720;DHT22;32452;51.382;-0.002;2023-04-03T02:00:00;4.10;94.10
46720;DHT22;32452;51.382;-0.002;2023-04-03T02:02:46;4.10;94.20
46720;DHT22;32452;51.382;-0.002;2023-04-03T02:05:32;4.00;94.30
46720;DHT22;32452;51.382;-0.002;2023-04-03T02:08:17;4.00;94.40
46720;DHT22;32452;51.382;-0.002;2023-04-03T02:11:05;4.00;94.40
46720;DHT22;32452;51.382;-0.002;2023-04-03T02:13:51;4.00;94.50
46720;DHT22;32452;51.382;-0.002;2023-04-03T02:16:37;3.90;94.50
46720;DHT22;32452;51.382;-0.002;2023-04-03T02:19:23;3.90;94.50
46720;DHT22;32452;51.382;-0.002;2023-04-03T02:22:09;3.80;94.50
46720;DHT22;32452;51.382;-0.002;2023-04-03T02:24:54;3.80;94.70
46720;DHT22;32452;51.382;-0.002;2023-04-03T02:27:40;3.80;94.60
46720;DHT22;32452;51.382;-0.002;2023-04-03T02:30:26;3.70;94.70
46720;DHT22;32452;51.382;-0.002;2023-04-03T02:33:11;3.60;94.70
46720;DHT22;32452;51.382;-0.002;2023-04-03T02:35:58;3.60;94.70
46720;DHT22;32452;51.382;-0.002;2023-04-03T02:38:44;3.50;94.70
46720;DHT22;32452;51.382;-0.002;2023-04-03T02:41:30;3.50;94.80
46720;DHT22;32452;51.382;-0.002;2023-04-03T02:44:20;3.40;94.90
46720;DHT22;32452;51.382;-0.002;2023-04-03T02:47:05;3.30;94.90
46720;DHT22;32452;51.382;-0.002;2023-04-03T02:49:51;3.30;94.90
46720;DHT22;32452;51.382;-0.002;2023-04-03T02:52:37;3.30;94.90
46720;DHT22;32452;51.382;-0.002;2023-04-03T02:55:23;3.20;95.00
46720;DHT22;32452;51.382;-0.002;2023-04-03T02:58:09;3.20;95.00
46720;DHT22;32452;51.382;-0.002;2023-04-03T03:00:54;3.10;95.00
46720;DHT22;32452;51.382;-0.002;2023-04-03T03:03:40;3.00;95.10
46720;DHT22;32452;51.382;-0.002;2023-04-03T03:06:25;3.00;95.20
46720;DHT22;32452;51.382;-0.002;2023-04-03T03:09:10;3.00;95.30
46720;DHT22;32452;51.382;-0.002;2023-04-03T03:11:56;3.00;95.40
46720;DHT22;32452;51.382;-0.002;2023-04-03T03:14:41;2.90;95.50
46720;DHT22;32452;51.382;-0.002;2023-04-03T03:17:28;2.90;95.40
46720;DHT22;32452;51.382;-0.002;2023-04-03T03:20:14;2.90;95.40
46720;DHT22;32452;51.382;-0.002;2023-04-03T03:23:00;2.80;95.50
46720;DHT22;32452;51.382;-0.002;2023-04-03T03:25:46;2.80;95.50
46720;DHT22;32452;51.382;-0.002;2023-04-03T03:28:31;2.80;95.60
46720;DHT22;32452;51.382;-0.002;2023-04-03T03:31:17;2.70;95.60
46720;DHT22;32452;51.382;-0.002;2023-04-03T03:34:03;2.70;95.70
46720;DHT22;32452;51.382;-0.002;2023-04-03T03:36:48;2.70;95.90
46720;DHT22;32452;51.382;-0.002;2023-04-03T03:39:34;2.60;96.00
46720;DHT22;32452;51.382;-0.002;2023-04-03T03:42:19;2.60;96.00
46720;DHT22;32452;51.382;-0.002;2023-04-03T03:45:05;2.60;96.10
46720;DHT22;32452;51.382;-0.002;2023-04-03T03:47:51;2.60;96.10
46720;DHT22;32452;51.382;-0.002;2023-04-03T03:50:36;2.60;96.10
46720;DHT22;32452;51.382;-0.002;2023-04-03T03:53:22;2.50;96.10
46720;DHT22;32452;51.382;-0.002;2023-04-03T03:56:07;2.50;96.20
46720;DHT22;32452;51.382;-0.002;2023-04-03T03:58:53;2.40;96.30
46720;DHT22;32452;51.382;-0.002;2023-04-03T04:01:39;2.40;96.40
46720;DHT22;32452;51.382;-0.002;2023-04-03T04:04:25;2.40;96.50
46720;DHT22;32452;51.382;-0.002;2023-04-03T04:07:10;2.40;96.60
46720;DHT22;32452;51.382;-0.002;2023-04-03T04:09:56;2.40;96.70
46720;DHT22;32452;51.382;-0.002;2023-04-03T04:12:41;2.50;96.70
46720;DHT22;32452;51.382;-0.002;2023-04-03T04:15:27;2.50;96.80
46720;DHT22;32452;51.382;-0.002;2023-04-03T04:18:12;2.50;96.90
46720;DHT22;32452;51.382;-0.002;2023-04-03T04:20:58;2.50;96.90
46720;DHT22;32452;51.382;-0.002;2023-04-03T04:23:43;2.60;96.90
46720;DHT22;32452;51.382;-0.002;2023-04-03T04:26:29;2.60;97.00
46720;DHT22;32452;51.382;-0.002;2023-04-03T04:29:14;2.60;97.00
46720;DHT22;32452;51.382;-0.002;2023-04-03T04:31:59;2.60;97.00
46720;DHT22;32452;51.382;-0.002;2023-04-03T04:34:45;2.60;97.00
46720;DHT22;32452;51.382;-0.002;2023-04-03T04:37:31;2.60;97.10
46720;DHT22;32452;51.382;-0.002;2023-04-03T04:40:16;2.60;97.20
46720;DHT22;32452;51.382;-0.002;2023-04-03T04:43:02;2.60;97.30
46720;DHT22;32452;51.382;-0.002;2023-04-03T04:45:47;2.70;97.40
46720;DHT22;32452;51.382;-0.002;2023-04-03T04:48:34;2.70;97.40
46720;DHT22;32452;51.382;-0.002;2023-04-03T04:51:20;2.70;97.40
46720;DHT22;32452;51.382;-0.002;2023-04-03T04:54:06;2.70;97.50
46720;DHT22;32452;51.382;-0.002;2023-04-03T04:56:51;2.70;97.60
46720;DHT22;32452;51.382;-0.002;2023-04-03T04:59:37;2.70;97.70
46720;DHT22;32452;51.382;-0.002;2023-04-03T05:02:22;2.80;97.90
46720;DHT22;32452;51.382;-0.002;2023-04-03T05:05:08;2.80;97.90
46720;DHT22;32452;51.382;-0.002;2023-04-03T05:07:54;2.90;98.10
46720;DHT22;32452;51.382;-0.002;2023-04-03T05:10:40;2.90;97.80
46720;DHT22;32452;51.382;-0.002;2023-04-03T05:13:26;3.00;98.10
46720;DHT22;32452;51.382;-0.002;2023-04-03T05:16:12;3.00;98.10
46720;DHT22;32452;51.382;-0.002;2023-04-03T05:18:57;3.00;98.50
46720;DHT22;32452;51.382;-0.002;2023-04-03T05:21:43;3.10;98.20
46720;DHT22;32452;51.382;-0.002;2023-04-03T05:24:28;3.10;98.20
46720;DHT22;32452;51.382;-0.002;2023-04-03T05:27:14;3.10;98.20
46720;DHT22;32452;51.382;-0.002;2023-04-03T05:30:00;3.10;98.20
46720;DHT22;32452;51.382;-0.002;2023-04-03T05:32:46;3.10;98.30
46720;DHT22;32452;51.382;-0.002;2023-04-03T05:35:32;3.10;98.40
46720;DHT22;32452;51.382;-0.002;2023-04-03T05:38:18;3.10;98.50
46720;DHT22;32452;51.382;-0.002;2023-04-03T05:41:05;3.20;98.60
46720;DHT22;32452;51.382;-0.002;2023-04-03T05:43:50;3.20;98.60
46720;DHT22;32452;51.382;-0.002;2023-04-03T05:46:36;3.30;98.70
46720;DHT22;32452;51.382;-0.002;2023-04-03T05:49:21;3.30;98.70
46720;DHT22;32452;51.382;-0.002;2023-04-03T05:52:26;3.30;98.80
46720;DHT22;32452;51.382;-0.002;2023-04-03T05:55:12;3.40;98.80
46720;DHT22;32452;51.382;-0.002;2023-04-03T05:57:58;3.40;98.90
46720;DHT22;32452;51.382;-0.002;2023-04-03T06:00:43;3.40;99.00
46720;DHT22;32452;51.382;-0.002;2023-04-03T06:03:29;3.50;99.00
46720;DHT22;32452;51.382;-0.002;2023-04-03T06:06:15;3.50;98.90
46720;DHT22;32452;51.382;-0.002;2023-04-03T06:09:01;3.50;99.00
46720;DHT22;32452;51.382;-0.002;2023-04-03T06:11:48;3.50;99.00
46720;DHT22;32452;51.382;-0.002;2023-04-03T06:14:33;3.60;99.10
46720;DHT22;32452;51.382;-0.002;2023-04-03T06:17:19;3.60;99.10
46720;DHT22;32452;51.382;-0.002;2023-04-03T06:20:06;3.70;99.10
46720;DHT22;32452;51.382;-0.002;2023-04-03T06:22:51;3.70;99.20
46720;DHT22;32452;51.382;-0.002;2023-04-03T06:25:37;3.70;99.20
46720;DHT22;32452;51.382;-0.002;2023-04-03T06:28:22;3.70;99.20
46720;DHT22;32452;51.382;-0.002;2023-04-03T06:31:10;3.80;99.20
46720;DHT22;32452;51.382;-0.002;2023-04-03T06:33:56;3.80;99.30
46720;DHT22;32452;51.382;-0.002;2023-04-03T06:36:42;3.90;99.30
46720;DHT22;32452;51.382;-0.002;2023-04-03T06:39:28;3.90;99.30
46720;DHT22;32452;51.382;-0.002;2023-04-03T06:42:14;4.00;99.30
46720;DHT22;32452;51.382;-0.002;2023-04-03T06:45:00;4.00;99.30
46720;DHT22;32452;51.382;-0.002;2023-04-03T06:47:46;4.00;99.40
46720;DHT22;32452;51.382;-0.002;2023-04-03T06:50:32;4.10;99.60
46720;DHT22;32452;51.382;-0.002;2023-04-03T06:53:17;4.10;99.60
46720;DHT22;32452;51.382;-0.002;2023-04-03T06:56:03;4.20;99.70
46720;DHT22;32452;51.382;-0.002;2023-04-03T06:58:49;4.20;99.70
46720;DHT22;32452;51.382;-0.002;2023-04-03T07:01:36;4.30;99.70
46720;DHT22;32452;51.382;-0.002;2023-04-03T07:04:22;4.30;99.90
46720;DHT22;32452;51.382;-0.002;2023-04-03T07:07:08;4.40;99.90
46720;DHT22;32452;51.382;-0.002;2023-04-03T07:09:53;5.10;99.90
46720;DHT22;32452;51.382;-0.002;2023-04-03T07:12:39;6.20;99.90
46720;DHT22;32452;51.382;-0.002;2023-04-03T07:15:24;7.60;99.40
46720;DHT22;32452;51.382;-0.002;2023-04-03T07:18:10;8.80;97.30
46720;DHT22;32452;51.382;-0.002;2023-04-03T07:20:56;9.70;94.80
46720;DHT22;32452;51.382;-0.002;2023-04-03T07:23:42;10.40;92.50
46720;DHT22;32452;51.382;-0.002;2023-04-03T07:26:27;10.90;91.00
46720;DHT22;32452;51.382;-0.002;2023-04-03T07:29:13;10.70;89.50
46720;DHT22;32452;51.382;-0.002;2023-04-03T07:31:59;10.50;89.10
46720;DHT22;32452;51.382;-0.002;2023-04-03T07:34:45;10.20;88.60
46720;DHT22;32452;51.382;-0.002;2023-04-03T07:37:31;10.00;89.10
46720;DHT22;32452;51.382;-0.002;2023-04-03T07:40:17;9.70;89.10
46720;DHT22;32452;51.382;-0.002;2023-04-03T07:43:05;9.40;89.30
46720;DHT22;32452;51.382;-0.002;2023-04-03T07:45:50;9.00;89.30
46720;DHT22;32452;51.382;-0.002;2023-04-03T07:48:36;9.00;90.50
46720;DHT22;32452;51.382;-0.002;2023-04-03T07:51:22;9.50;90.40
46720;DHT22;32452;51.382;-0.002;2023-04-03T07:54:09;9.70;89.20
46720;DHT22;32452;51.382;-0.002;2023-04-03T07:56:55;10.30;88.50
46720;DHT22;32452;51.382;-0.002;2023-04-03T07:59:52;11.20;86.60
46720;DHT22;32452;51.382;-0.002;2023-04-03T08:03:37;12.10;83.00
46720;DHT22;32452;51.382;-0.002;2023-04-03T08:10:52;13.90;78.00
46720;DHT22;32452;51.382;-0.002;2023-04-03T08:13:47;14.70;75.40
46720;DHT22;32452;51.382;-0.002;2023-04-03T08:16:33;15.30;72.80
46720;DHT22;32452;51.382;-0.002;2023-04-03T08:19:22;15.90;70.20
46720;DHT22;32452;51.382;-0.002;2023-04-03T08:22:15;16.40;68.30
46720;DHT22;32452;51.382;-0.002;2023-04-03T08:25:01;16.90;66.60
46720;DHT22;32452;51.382;-0.002;2023-04-03T08:27:47;17.20;65.10
46720;DHT22;32452;51.382;-0.002;2023-04-03T08:30:33;17.50;63.60
46720;DHT22;32452;51.382;-0.002;2023-04-03T08:33:19;17.70;61.70
46720;DHT22;32452;51.382;-0.002;2023-04-03T08:36:06;17.80;61.00
46720;DHT22;32452;51.382;-0.002;2023-04-03T08:38:53;18.10;59.90
46720;DHT22;32452;51.382;-0.002;2023-04-03T08:41:42;18.40;59.20
46720;DHT22;32452;51.382;-0.002;2023-04-03T08:48:00;18.80;57.30
46720;DHT22;32452;51.382;-0.002;2023-04-03T08:50:54;19.00;56.60
46720;DHT22;32452;51.382;-0.002;2023-04-03T08:53:52;19.40;56.20
46720;DHT22;32452;51.382;-0.002;2023-04-03T08:56:42;19.60;55.20
46720;DHT22;32452;51.382;-0.002;2023-04-03T08:59:33;19.70;54.70
46720;DHT22;32452;51.382;-0.002;2023-04-03T09:05:26;19.90;53.30
46720;DHT22;32452;51.382;-0.002;2023-04-03T09:08:30;19.80;53.20
46720;DHT22;32452;51.382;-0.002;2023-04-03T09:11:25;20.00;53.30
46720;DHT22;32452;51.382;-0.002;2023-04-03T09:14:26;20.40;52.30
46720;DHT22;32452;51.382;-0.002;2023-04-03T09:21:01;20.00;51.10
46720;DHT22;32452;51.382;-0.002;2023-04-03T09:23:53;19.90;51.60
46720;DHT22;32452;51.382;-0.002;2023-04-03T09:30:02;19.00;50.60
46720;DHT22;32452;51.382;-0.002;2023-04-03T09:32:50;18.60;51.20
46720;DHT22;32452;51.382;-0.002;2023-04-03T09:35:50;18.20;51.20
46720;DHT22;32452;51.382;-0.002;2023-04-03T09:39:28;17.70;51.60
46720;DHT22;32452;51.382;-0.002;2023-04-03T09:42:21;17.20;52.50
46720;DHT22;32452;51.382;-0.002;2023-04-03T09:45:22;16.80;52.80
46720;DHT22;32452;51.382;-0.002;2023-04-03T09:48:16;16.50;53.80
46720;DHT22;32452;51.382;-0.002;2023-04-03T09:51:03;15.80;54.00
46720;DHT22;32452;51.382;-0.002;2023-04-03T09:53:49;15.60;55.20
46720;DHT22;32452;51.382;-0.002;2023-04-03T09:56:34;15.90;56.00
46720;DHT22;32452;51.382;-0.002;2023-04-03T09:59:21;15.80;55.40
46720;DHT22;32452;51.382;-0.002;2023-04-03T10:02:35;15.40;55.70
46720;DHT22;32452;51.382;-0.002;2023-04-03T10:05:33;14.80;56.20
46720;DHT22;32452;51.382;-0.002;2023-04-03T10:08:23;14.30;57.20
46720;DHT22;32452;51.382;-0.002;2023-04-03T10:11:17;14.10;57.70
46720;DHT22;32452;51.382;-0.002;2023-04-03T10:14:04;13.80;58.10
46720;DHT22;32452;51.382;-0.002;2023-04-03T10:17:04;13.40;58.70
46720;DHT22;32452;51.382;-0.002;2023-04-03T10:23:33;12.90;60.00
46720;DHT22;32452;51.382;-0.002;2023-04-03T10:29:46;13.50;60.00
46720;DHT22;32452;51.382;-0.002;2023-04-03T10:32:49;13.30;59.40
46720;DHT22;32452;51.382;-0.002;2023-04-03T10:42:29;12.30;60.70
46720;DHT22;32452;51.382;-0.002;2023-04-03T10:45:40;12.20;61.80
46720;DHT22;32452;51.382;-0.002;2023-04-03T10:51:34;12.40;61.70
46720;DHT22;32452;51.382;-0.002;2023-04-03T10:54:26;12.30;61.70
46720;DHT22;32452;51.382;-0.002;2023-04-03T10:57:15;12.40;61.60
46720;DHT22;32452;51.382;-0.002;2023-04-03T11:00:04;12.40;61.10
46720;DHT22;32452;51.382;-0.002;2023-04-03T11:03:00;12.30;60.70
46720;DHT22;32452;51.382;-0.002;2023-04-03T11:05:52;12.20;60.60
46720;DHT22;32452;51.382;-0.002;2023-04-03T11:08:53;12.10;60.10
46720;DHT22;32452;51.382;-0.002;2023-04-03T11:11:43;12.00;59.80
46720;DHT22;32452;51.382;-0.002;2023-04-03T11:14:35;12.00;60.00
46720;DHT22;32452;51.382;-0.002;2023-04-03T11:17:39;12.10;59.90
46720;DHT22;32452;51.382;-0.002;2023-04-03T11:20:32;12.30;59.80
46720;DHT22;32452;51.382;-0.002;2023-04-03T11:23:24;12.50;59.50
46720;DHT22;32452;51.382;-0.002;2023-04-03T11:26:18;13.00;59.30
46720;DHT22;32452;51.382;-0.002;2023-04-03T11:29:14;13.30;59.10
46720;DHT22;32452;51.382;-0.002;2023-04-03T11:32:54;13.50;57.90
46720;DHT22;32452;51.382;-0.002;2023-04-03T11:35:48;13.60;57.40
46720;DHT22;32452;51.382;-0.002;2023-04-03T11:38:38;13.90;57.10
46720;DHT22;32452;51.382;-0.002;2023-04-03T11:41:31;14.20;55.60
46720;DHT22;32452;51.382;-0.002;2023-04-03T11:44:35;14.10;55.60
46720;DHT22;32452;51.382;-0.002;2023-04-03T11:47:47;14.40;55.50
46720;DHT22;32452;51.382;-0.002;2023-04-03T11:53:31;14.90;55.30
46720;DHT22;32452;51.382;-0.002;2023-04-03T12:01:59;16.10;52.90
46720;DHT22;32452;51.382;-0.002;2023-04-03T12:05:25;16.30;52.20
46720;DHT22;32452;51.382;-0.002;2023-04-03T12:11:34;15.70;51.20
46720;DHT22;32452;51.382;-0.002;2023-04-03T12:14:24;16.00;51.30
46720;DHT22;32452;51.382;-0.002;2023-04-03T12:17:22;16.30;50.30
46720;DHT22;32452;51.382;-0.002;2023-04-03T12:30:18;17.40;49.00
46720;DHT22;32452;51.382;-0.002;2023-04-03T12:33:20;17.90;48.40
46720;DHT22;32452;51.382;-0.002;2023-04-03T12:37:14;18.20;48.00
46720;DHT22;32452;51.382;-0.002;2023-04-03T12:39:52;18.00;47.40
46720;DHT22;32452;51.382;-0.002;2023-04-03T12:48:55;17.60;47.40
46720;DHT22;32452;51.382;-0.002;2023-04-03T12:51:44;17.70;47.20
46720;DHT22;32452;51.382;-0.002;2023-04-03T12:54:36;17.60;46.80
46720;DHT22;32452;51.382;-0.002;2023-04-03T12:57:25;17.50;46.60
46720;DHT22;32452;51.382;-0.002;2023-04-03T13:00:34;17.50;45.90
46720;DHT22;32452;51.382;-0.002;2023-04-03T13:03:25;17.30;46.00
46720;DHT22;32452;51.382;-0.002;2023-04-03T13:06:41;17.20;46.70
46720;DHT22;32452;51.382;-0.002;2023-04-03T13:09:29;17.30;46.80
46720;DHT22;32452;51.382;-0.002;2023-04-03T13:12:16;17.20;46.90
46720;DHT22;32452;51.382;-0.002;2023-04-03T13:15:17;16.80;46.00
46720;DHT22;32452;51.382;-0.002;2023-04-03T13:18:03;16.60;46.80
46720;DHT22;32452;51.382;-0.002;2023-04-03T13:20:50;16.60;46.60
46720;DHT22;32452;51.382;-0.002;2023-04-03T13:23:38;16.30;46.00
46720;DHT22;32452;51.382;-0.002;2023-04-03T13:26:28;16.00;46.80
46720;DHT22;32452;51.382;-0.002;2023-04-03T13:29:27;15.90;47.30
46720;DHT22;32452;51.382;-0.002;2023-04-03T13:32:22;15.80;47.10
46720;DHT22;32452;51.382;-0.002;2023-04-03T13:35:38;15.60;47.30
46720;DHT22;32452;51.382;-0.002;2023-04-03T13:38:27;15.30;47.30
46720;DHT22;32452;51.382;-0.002;2023-04-03T13:41:33;14.80;47.80
46720;DHT22;32452;51.382;-0.002;2023-04-03T13:44:28;14.50;48.60
46720;DHT22;32452;51.382;-0.002;2023-04-03T13:47:21;14.50;49.10
46720;DHT22;32452;51.382;-0.002;2023-04-03T13:50:20;14.50;49.10
46720;DHT22;32452;51.382;-0.002;2023-04-03T13:53:12;14.50;49.20
46720;DHT22;32452;51.382;-0.002;2023-04-03T13:59:01;14.50;49.50
46720;DHT22;32452;51.382;-0.002;2023-04-03T14:04:59;14.30;49.30
46720;DHT22;32452;51.382;-0.002;2023-04-03T14:07:47;14.00;49.90
46720;DHT22;32452;51.382;-0.002;2023-04-03T14:10:33;14.00;50.50
46720;DHT22;32452;51.382;-0.002;2023-04-03T14:13:19;14.00;50.70
46720;DHT22;32452;51.382;-0.002;2023-04-03T14:16:06;14.10;50.90
46720;DHT22;32452;51.382;-0.002;2023-04-03T14:18:59;14.20;50.60
46720;DHT22;32452;51.382;-0.002;2023-04-03T14:21:45;14.20;51.20
46720;DHT22;32452;51.382;-0.002;2023-04-03T14:24:31;14.20;50.60
46720;DHT22;32452;51.382;-0.002;2023-04-03T14:27:23;14.10;51.10
46720;DHT22;32452;51.382;-0.002;2023-04-03T14:30:17;14.10;51.20
46720;DHT22;32452;51.382;-0.002;2023-04-03T14:33:03;14.00;51.10
46720;DHT22;32452;51.382;-0.002;2023-04-03T14:35:49;13.90;51.00
46720;DHT22;32452;51.382;-0.002;2023-04-03T14:38:35;13.80;51.10
46720;DHT22;32452;51.382;-0.002;2023-04-03T14:41:23;13.70;51.20
46720;DHT22;32452;51.382;-0.002;2023-04-03T14:44:09;13.70;51.70
46720;DHT22;32452;51.382;-0.002;2023-04-03T14:46:54;13.70;51.80
46720;DHT22;32452;51.382;-0.002;2023-04-03T14:49:42;13.60;52.10
46720;DHT22;32452;51.382;-0.002;2023-04-03T14:52:31;13.40;52.50
46720;DHT22;32452;51.382;-0.002;2023-04-03T14:55:20;13.40;52.90
46720;DHT22;32452;51.382;-0.002;2023-04-03T14:58:16;13.30;53.30
46720;DHT22;32452;51.382;-0.002;2023-04-03T15:01:03;13.30;53.60
46720;DHT22;32452;51.382;-0.002;2023-04-03T15:03:49;13.20;53.60
46720;DHT22;32452;51.382;-0.002;2023-04-03T15:06:35;13.10;53.10
46720;DHT22;32452;51.382;-0.002;2023-04-03T15:09:24;13.10;53.10
46720;DHT22;32452;51.382;-0.002;2023-04-03T15:12:10;13.00;53.00
46720;DHT22;32452;51.382;-0.002;2023-04-03T15:14:56;12.90;52.60
46720;DHT22;32452;51.382;-0.002;2023-04-03T15:17:51;12.90;52.50
46720;DHT22;32452;51.382;-0.002;2023-04-03T15:20:41;12.80;52.50
46720;DHT22;32452;51.382;-0.002;2023-04-03T15:23:28;12.80;52.90
46720;DHT22;32452;51.382;-0.002;2023-04-03T15:26:15;12.80;52.80
46720;DHT22;32452;51.382;-0.002;2023-04-03T15:29:01;12.60;52.60
46720;DHT22;32452;51.382;-0.002;2023-04-03T15:31:49;12.50;52.70
46720;DHT22;32452;51.382;-0.002;2023-04-03T15:34:38;12.40;52.80
46720;DHT22;32452;51.382;-0.002;2023-04-03T15:37:24;12.30;53.10
46720;DHT22;32452;51.382;-0.002;2023-04-03T15:40:11;12.20;52.90
46720;DHT22;32452;51.382;-0.002;2023-04-03T15:42:58;12.20;52.50
46720;DHT22;32452;51.382;-0.002;2023-04-03T15:45:44;12.20;52.20
46720;DHT22;32452;51.382;-0.002;2023-04-03T15:48:31;12.10;52.30
46720;DHT22;32452;51.382;-0.002;2023-04-03T15:51:17;11.90;52.70
46720;DHT22;32452;51.382;-0.002;2023-04-03T15:54:03;11.80;53.30
46720;DHT22;32452;51.382;-0.002;2023-04-03T15:56:48;11.70;53.70
46720;DHT22;32452;51.382;-0.002;2023-04-03T15:59:34;11.60;54.10
46720;DHT22;32452;51.382;-0.002;2023-04-03T16:02:20;11.50;54.70
46720;DHT22;32452;51.382;-0.002;2023-04-03T16:05:07;11.50;55.20
46720;DHT22;32452;51.382;-0.002;2023-04-03T16:07:54;11.50;55.30
46720;DHT22;32452;51.382;-0.002;2023-04-03T16:10:41;11.40;55.20
46720;DHT22;32452;51.382;-0.002;2023-04-03T16:13:27;11.30;54.50
46720;DHT22;32452;51.382;-0.002;2023-04-03T16:16:13;11.20;53.40
46720;DHT22;32452;51.382;-0.002;2023-04-03T16:18:59;11.10;53.10
46720;DHT22;32452;51.382;-0.002;2023-04-03T16:21:45;11.10;52.90
46720;DHT22;32452;51.382;-0.002;2023-04-03T16:24:32;11.20;53.00
46720;DHT22;32452;51.382;-0.002;2023-04-03T16:27:17;11.20;53.30
46720;DHT22;32452;51.382;-0.002;2023-04-03T16:30:03;11.20;54.10
46720;DHT22;32452;51.382;-0.002;2023-04-03T16:32:51;11.10;55.00
46720;DHT22;32452;51.382;-0.002;2023-04-03T16:35:44;11.00;55.80
46720;DHT22;32452;51.382;-0.002;2023-04-03T16:38:31;10.90;56.40
46720;DHT22;32452;51.382;-0.002;2023-04-03T16:41:17;10.90;56.80
46720;DHT22;32452;51.382;-0.002;2023-04-03T16:44:05;10.90;57.20
46720;DHT22;32452;51.382;-0.002;2023-04-03T16:46:52;10.80;57.60
46720;DHT22;32452;51.382;-0.002;2023-04-03T16:49:39;10.70;57.90
46720;DHT22;32452;51.382;-0.002;2023-04-03T16:52:24;10.60;58.10
46720;DHT22;32452;51.382;-0.002;2023-04-03T16:55:10;10.60;59.00
46720;DHT22;32452;51.382;-0.002;2023-04-03T16:57:56;10.60;58.40
46720;DHT22;32452;51.382;-0.002;2023-04-03T17:00:42;10.50;58.40
46720;DHT22;32452;51.382;-0.002;2023-04-03T17:03:27;10.40;58.50
46720;DHT22;32452;51.382;-0.002;2023-04-03T17:06:19;10.40;58.80
46720;DHT22;32452;51.382;-0.002;2023-04-03T17:09:06;10.30;59.00
46720;DHT22;32452;51.382;-0.002;2023-04-03T17:11:52;10.20;59.10
46720;DHT22;32452;51.382;-0.002;2023-04-03T17:14:37;10.10;59.20
46720;DHT22;32452;51.382;-0.002;2023-04-03T17:17:24;10.10;59.30
46720;DHT22;32452;51.382;-0.002;2023-04-03T17:20:11;10.10;59.30
46720;DHT22;32452;51.382;-0.002;2023-04-03T17:22:57;10.10;59.30
46720;DHT22;32452;51.382;-0.002;2023-04-03T17:25:43;10.00;59.20
46720;DHT22;32452;51.382;-0.002;2023-04-03T17:28:29;9.90;59.10
46720;DHT22;32452;51.382;-0.002;2023-04-03T17:31:15;9.80;59.00
46720;DHT22;32452;51.382;-0.002;2023-04-03T17:34:00;9.80;59.00
46720;DHT22;32452;51.382;-0.002;2023-04-03T17:36:47;9.80;59.10
46720;DHT22;32452;51.382;-0.002;2023-04-03T17:39:33;9.70;59.10
46720;DHT22;32452;51.382;-0.002;2023-04-03T17:42:19;9.60;60.00
46720;DHT22;32452;51.382;-0.002;2023-04-03T17:45:06;9.50;59.80
46720;DHT22;32452;51.382;-0.002;2023-04-03T17:48:03;9.40;60.40
46720;DHT22;32452;51.382;-0.002;2023-04-03T17:50:49;9.30;60.60
46720;DHT22;32452;51.382;-0.002;2023-04-03T17:53:35;9.30;60.80
46720;DHT22;32452;51.382;-0.002;2023-04-03T17:56:24;9.30;61.00
46720;DHT22;32452;51.382;-0.002;2023-04-03T17:59:11;9.30;61.30
46720;DHT22;32452;51.382;-0.002;2023-04-03T18:01:57;9.20;61.50
46720;DHT22;32452;51.382;-0.002;2023-04-03T18:04:43;9.10;61.70
46720;DHT22;32452;51.382;-0.002;2023-04-03T18:07:29;9.00;61.90
46720;DHT22;32452;51.382;-0.002;2023-04-03T18:10:17;9.00;61.80
46720;DHT22;32452;51.382;-0.002;2023-04-03T18:13:06;8.90;61.80
46720;DHT22;32452;51.382;-0.002;2023-04-03T18:15:51;8.90;61.80
46720;DHT22;32452;51.382;-0.002;2023-04-03T18:18:37;8.80;62.00
46720;DHT22;32452;51.382;-0.002;2023-04-03T18:21:23;8.70;62.30
46720;DHT22;32452;51.382;-0.002;2023-04-03T18:24:13;8.60;62.40
46720;DHT22;32452;51.382;-0.002;2023-04-03T18:27:14;8.50;62.70
46720;DHT22;32452;51.382;-0.002;2023-04-03T18:30:08;8.40;63.00
46720;DHT22;32452;51.382;-0.002;2023-04-03T18:32:58;8.40;63.20
46720;DHT22;32452;51.382;-0.002;2023-04-03T18:35:52;8.30;63.40
46720;DHT22;32452;51.382;-0.002;2023-04-03T18:39:07;8.30;63.80
46720;DHT22;32452;51.382;-0.002;2023-04-03T18:41:53;8.20;64.00
46720;DHT22;32452;51.382;-0.002;2023-04-03T18:44:42;8.10;64.00
46720;DHT22;32452;51.382;-0.002;2023-04-03T18:47:28;8.10;64.20
46720;DHT22;32452;51.382;-0.002;2023-04-03T18:50:14;8.00;64.40
46720;DHT22;32452;51.382;-0.002;2023-04-03T18:53:00;8.00;64.70
46720;DHT22;32452;51.382;-0.002;2023-04-03T18:55:46;7.90;64.80